Time;durP1;ratioP1;P1;durP2;ratioP2;P2;SDS_P1;SDS_P2;PMS_P1;PMS_P2;Temp;Humidity;BMP_temperature;BMP_pressure;BME280_temperature;BME280_humidity;BME280_pressure;Samples;Min_cycle;Max_cycle;Signal;HPM_P1;HPM_P2
2023/10/24 00:01:32;;;;;;;30.48;21.27;;;10.50;99.90;;;;;;5053823;28;20045;-69
2023/10/24 00:03:57;;;;;;;28.08;19.52;;;10.50;99.90;;;;;;5053980;28;20045;-69
2023/10/24 00:06:23;;;;;;;28.95;20.55;;;10.50;99.90;;;;;;5037446;28;20041;-72
2023/10/24 00:08:49;;;;;;;27.35;18.08;;;10.50;99.90;;;;;;5053769;28;20041;-72
2023/10/24 00:11:15;;;;;;;32.00;21.02;;;10.50;99.90;;;;;;5053619;28;20128;-71
2023/10/24 00:13:40;;;;;;;29.85;21.20;;;10.60;99.90;;;;;;5053934;28;20401;-72
2023/10/24 00:16:07;;;;;;;26.20;18.40;;;10.50;99.90;;;;;;5053744;28;20043;-72
2023/10/24 00:18:32;;;;;;;34.65;22.95;;;10.50;99.90;;;;;;5053518;28;20041;-72
2023/10/24 00:20:58;;;;;;;35.20;22.35;;;10.50;99.90;;;;;;5053727;28;20052;-72
2023/10/24 00:23:24;;;;;;;34.92;23.65;;;10.50;99.90;;;;;;5053675;28;20080;-72
2023/10/24 00:25:51;;;;;;;28.20;19.38;;;10.50;99.90;;;;;;5053573;28;20394;-72
2023/10/24 00:28:16;;;;;;;36.30;23.77;;;10.50;99.90;;;;;;5053789;28;20049;-72
2023/10/24 00:30:42;;;;;;;32.28;22.27;;;10.50;99.90;;;;;;5036639;28;20052;-72
2023/10/24 00:33:08;;;;;;;35.55;22.35;;;10.40;99.90;;;;;;5053602;28;20127;-72
2023/10/24 00:35:34;;;;;;;36.88;23.48;;;10.50;99.90;;;;;;5053149;28;20049;-72
2023/10/24 00:38:00;;;;;;;34.60;22.05;;;10.50;99.90;;;;;;5053277;28;20076;-72
2023/10/24 00:40:26;;;;;;;33.45;22.45;;;10.50;99.90;;;;;;5053285;28;20072;-72
2023/10/24 00:42:54;;;;;;;29.50;20.23;;;10.50;99.90;;;;;;5052969;28;20078;-72
2023/10/24 00:45:20;;;;;;;36.47;24.42;;;10.50;99.90;;;;;;5053141;28;20044;-72
2023/10/24 00:47:46;;;;;;;34.58;23.75;;;10.50;99.90;;;;;;5053310;28;20393;-73
2023/10/24 00:50:13;;;;;;;38.03;24.45;;;10.60;99.90;;;;;;5036340;28;20037;-72
2023/10/24 00:52:42;;;;;;;34.78;23.90;;;10.50;99.90;;;;;;5052898;28;20039;-73
2023/10/24 00:55:08;;;;;;;34.45;23.75;;;10.60;99.90;;;;;;5053221;28;20040;-72
2023/10/24 00:57:35;;;;;;;32.60;22.27;;;10.50;99.90;;;;;;5052826;28;20140;-72
2023/10/24 01:00:01;;;;;;;53.53;30.10;;;10.50;99.90;;;;;;5053263;28;20559;-72
2023/10/24 01:02:27;;;;;;;34.17;22.33;;;10.60;99.90;;;;;;5053081;28;20044;-72
2023/10/24 01:04:54;;;;;;;47.08;27.77;;;10.50;99.90;;;;;;5052692;28;20049;-73
2023/10/24 01:07:20;;;;;;;46.72;27.77;;;10.50;99.90;;;;;;5052703;28;20037;-72
2023/10/24 01:09:46;;;;;;;37.58;23.58;;;10.50;99.90;;;;;;5036188;28;20091;-73
2023/10/24 01:12:12;;;;;;;30.13;20.02;;;10.60;99.90;;;;;;5051998;28;20051;-72
2023/10/24 01:14:40;;;;;;;35.38;24.20;;;10.60;99.90;;;;;;5052584;28;20382;-72
2023/10/24 01:17:14;;;;;;;35.85;21.58;;;10.70;99.90;;;;;;5052514;28;20106;-72
2023/10/24 01:19:40;;;;;;;35.35;23.85;;;10.70;99.90;;;;;;5052691;28;20393;-72
2023/10/24 01:22:05;;;;;;;42.60;26.35;;;10.60;99.90;;;;;;5052432;28;20052;-72
2023/10/24 01:24:32;;;;;;;32.80;22.85;;;10.60;99.90;;;;;;5052979;28;20044;-72
2023/10/24 01:26:58;;;;;;;42.85;26.33;;;10.60;99.90;;;;;;5052363;28;20538;-70
2023/10/24 01:29:24;;;;;;;34.55;22.38;;;10.70;99.90;;;;;;5052467;28;20095;-69
2023/10/24 01:31:50;;;;;;;32.03;22.52;;;10.70;99.90;;;;;;5052056;28;20072;-69
2023/10/24 01:34:15;;;;;;;37.47;24.92;;;10.70;99.90;;;;;;5035540;28;20142;-70
2023/10/24 01:36:41;;;;;;;41.65;25.20;;;10.70;99.90;;;;;;5052082;28;20049;-70
2023/10/24 01:39:08;;;;;;;39.35;25.20;;;10.70;99.90;;;;;;5052075;28;20049;-69
2023/10/24 01:41:34;;;;;;;41.15;27.38;;;10.70;99.90;;;;;;5052165;28;20047;-70
2023/10/24 01:44:00;;;;;;;37.38;24.77;;;10.60;99.90;;;;;;5052348;28;20079;-70
2023/10/24 01:46:25;;;;;;;35.97;23.98;;;10.60;99.90;;;;;;5052002;28;20041;-70
2023/10/24 01:48:51;;;;;;;38.15;25.65;;;10.60;99.90;;;;;;5051843;28;20136;-70
2023/10/24 01:51:17;;;;;;;35.78;23.75;;;10.70;99.90;;;;;;5051804;28;20048;-70
2023/10/24 01:53:43;;;;;;;34.53;23.25;;;10.70;99.90;;;;;;5035604;28;20099;-70
2023/10/24 01:56:13;;;;;;;43.60;26.10;;;10.70;99.90;;;;;;5051777;28;20048;-70
2023/10/24 01:58:39;;;;;;;41.08;25.83;;;10.70;99.90;;;;;;5052019;28;20121;-70
2023/10/24 02:01:06;;;;;;;41.88;25.75;;;10.70;99.90;;;;;;5051800;28;20123;-70
2023/10/24 02:03:32;;;;;;;33.17;23.25;;;10.70;99.90;;;;;;5051764;28;20037;-70
2023/10/24 02:05:59;;;;;;;36.53;24.52;;;10.70;99.90;;;;;;5051781;28;20049;-69
2023/10/24 02:08:24;;;;;;;36.75;24.70;;;10.70;99.90;;;;;;5052007;28;20396;-69
2023/10/24 02:10:50;;;;;;;36.70;23.42;;;10.70;99.90;;;;;;5051771;28;20041;-69
2023/10/24 02:13:17;;;;;;;35.83;22.20;;;10.70;99.90;;;;;;5051734;28;20044;-70
2023/10/24 02:15:42;;;;;;;32.45;22.23;;;10.80;99.90;;;;;;5051671;28;20037;-69
2023/10/24 02:18:08;;;;;;;35.90;23.10;;;10.80;99.90;;;;;;5051462;28;20033;-70
2023/10/24 02:20:34;;;;;;;31.80;22.23;;;10.80;99.90;;;;;;5051679;28;20110;-70
2023/10/24 02:23:00;;;;;;;32.03;20.95;;;10.80;99.90;;;;;;5053791;28;20443;-70
2023/10/24 02:25:25;;;;;;;29.58;20.02;;;10.90;99.90;;;;;;5038896;28;20044;-69
2023/10/24 02:27:52;;;;;;;33.50;22.95;;;10.90;99.90;;;;;;5055817;28;20080;-70
2023/10/24 02:30:18;;;;;;;33.03;22.75;;;10.90;99.90;;;;;;5055726;28;20439;-70
2023/10/24 02:32:44;;;;;;;31.48;20.80;;;10.90;99.90;;;;;;5055584;28;20041;-70
2023/10/24 02:35:10;;;;;;;32.92;21.50;;;10.90;99.90;;;;;;5055458;28;20049;-70
2023/10/24 02:37:36;;;;;;;34.58;22.95;;;10.90;99.90;;;;;;5055527;28;20401;-70
2023/10/24 02:40:03;;;;;;;33.00;22.98;;;10.90;99.90;;;;;;5055356;28;20036;-69
2023/10/24 02:42:28;;;;;;;30.35;20.83;;;10.90;99.90;;;;;;5055384;28;20098;-70
2023/10/24 02:44:54;;;;;;;33.05;21.63;;;11.00;99.90;;;;;;5055213;28;20045;-70
2023/10/24 02:47:20;;;;;;;33.70;23.40;;;10.90;99.90;;;;;;5055151;28;20045;-69
2023/10/24 02:49:45;;;;;;;32.38;22.52;;;10.90;99.90;;;;;;5055170;28;20428;-70
2023/10/24 02:52:11;;;;;;;31.98;22.83;;;10.90;99.90;;;;;;5054957;28;20047;-70
2023/10/24 02:54:37;;;;;;;30.85;19.67;;;11.00;99.90;;;;;;5055353;28;20128;-70
2023/10/24 02:57:03;;;;;;;27.20;19.33;;;11.00;99.90;;;;;;5055178;28;20123;-70
2023/10/24 02:59:30;;;;;;;28.73;19.92;;;11.00;99.90;;;;;;5055249;28;20060;-69
2023/10/24 03:01:56;;;;;;;29.27;18.83;;;11.10;99.90;;;;;;5055233;28;20055;-70
2023/10/24 03:04:22;;;;;;;30.73;20.23;;;11.10;99.90;;;;;;5054826;28;20128;-69
2023/10/24 03:06:47;;;;;;;30.90;20.42;;;11.20;99.90;;;;;;5055080;28;20147;-70
2023/10/24 03:09:13;;;;;;;29.75;20.67;;;11.20;99.90;;;;;;5054894;28;20099;-70
2023/10/24 03:11:39;;;;;;;27.73;19.75;;;11.30;99.90;;;;;;5054675;28;20052;-70
2023/10/24 03:14:04;;;;;;;27.75;18.75;;;11.20;99.90;;;;;;5055039;28;20045;-69
2023/10/24 03:16:31;;;;;;;28.90;19.90;;;11.20;99.90;;;;;;5054734;28;20048;-69
2023/10/24 03:18:57;;;;;;;33.20;22.65;;;11.20;99.90;;;;;;5054874;28;20055;-70
2023/10/24 03:21:22;;;;;;;30.38;19.30;;;11.20;99.90;;;;;;5054658;28;20048;-69
2023/10/24 03:23:48;;;;;;;30.85;21.35;;;11.20;99.90;;;;;;5054499;28;20546;-69
2023/10/24 03:26:14;;;;;;;32.90;22.83;;;11.20;99.90;;;;;;5037779;28;20489;-70
2023/10/24 03:28:39;;;;;;;34.33;24.95;;;11.10;99.90;;;;;;5054673;28;20135;-70
2023/10/24 03:31:07;;;;;;;29.75;19.73;;;11.10;99.90;;;;;;5037784;28;20107;-69
2023/10/24 03:33:34;;;;;;;29.75;20.40;;;11.20;99.90;;;;;;5053915;28;20108;-69
2023/10/24 03:36:00;;;;;;;28.13;19.73;;;11.20;99.90;;;;;;5037313;28;20052;-69
2023/10/24 03:38:27;;;;;;;32.35;21.52;;;11.30;99.90;;;;;;5054618;28;20040;-69
2023/10/24 03:40:53;;;;;;;32.15;22.25;;;11.30;99.90;;;;;;5054283;28;20048;-69
2023/10/24 03:43:20;;;;;;;29.60;21.23;;;11.30;99.90;;;;;;5070909;28;20037;-70
2023/10/24 03:45:46;;;;;;;31.83;23.63;;;11.20;99.90;;;;;;5054408;28;20465;-69
2023/10/24 03:48:12;;;;;;;30.20;22.08;;;11.30;99.90;;;;;;5054256;28;20120;-69
2023/10/24 03:50:39;;;;;;;31.52;22.70;;;11.30;99.90;;;;;;5053970;28;20128;-69
2023/10/24 03:53:05;;;;;;;30.58;23.42;;;11.30;99.90;;;;;;5037399;28;20044;-69
2023/10/24 03:55:31;;;;;;;34.70;25.00;;;11.40;99.90;;;;;;5054150;28;20124;-69
2023/10/24 03:57:57;;;;;;;29.75;23.00;;;11.40;99.90;;;;;;5053861;28;20057;-69
2023/10/24 04:00:23;;;;;;;39.20;29.13;;;11.40;99.90;;;;;;5054142;28;20036;-69
2023/10/24 04:02:52;;;;;;;33.38;25.50;;;11.40;99.90;;;;;;5054198;28;20098;-69
2023/10/24 04:05:18;;;;;;;31.92;25.73;;;11.50;99.90;;;;;;5054225;28;20037;-69
2023/10/24 04:07:44;;;;;;;32.95;26.45;;;11.50;99.90;;;;;;5053968;28;20082;-69
2023/10/24 04:10:12;;;;;;;30.05;23.38;;;11.50;99.90;;;;;;5053662;28;20048;-69
2023/10/24 04:12:38;;;;;;;30.58;22.70;;;11.60;99.90;;;;;;5053663;28;20481;-70
2023/10/24 04:15:05;;;;;;;35.20;28.33;;;11.60;99.90;;;;;;5053595;28;20041;-70
2023/10/24 04:17:32;;;;;;;29.98;22.48;;;11.60;99.90;;;;;;5053537;28;20063;-69
2023/10/24 04:19:58;;;;;;;34.92;26.13;;;11.60;99.90;;;;;;5053493;28;20041;-69
2023/10/24 04:22:24;;;;;;;31.77;25.17;;;11.60;99.90;;;;;;5053847;28;20052;-69
2023/10/24 04:24:50;;;;;;;31.40;25.23;;;11.50;99.90;;;;;;5036711;28;20037;-70
2023/10/24 04:27:16;;;;;;;25.75;21.55;;;11.50;99.90;;;;;;5053416;28;20048;-69
2023/10/24 04:29:42;;;;;;;30.65;23.38;;;11.60;99.90;;;;;;5053625;28;20054;-70
2023/10/24 04:32:08;;;;;;;26.88;23.38;;;11.60;99.90;;;;;;5053286;28;20048;-70
2023/10/24 04:34:34;;;;;;;30.92;23.80;;;11.60;99.90;;;;;;5036474;28;20053;-69
2023/10/24 04:37:01;;;;;;;26.08;20.23;;;11.50;99.90;;;;;;5053221;28;20067;-70
2023/10/24 04:39:27;;;;;;;27.13;19.73;;;11.50;99.90;;;;;;5053156;28;20044;-70
2023/10/24 04:41:53;;;;;;;25.02;20.00;;;11.50;99.90;;;;;;5036473;28;20037;-70
2023/10/24 04:44:19;;;;;;;27.88;21.10;;;11.50;99.90;;;;;;5053078;28;20124;-70
2023/10/24 04:46:45;;;;;;;24.83;19.52;;;11.50;99.90;;;;;;5051968;28;20083;-69
2023/10/24 04:49:11;;;;;;;23.90;18.75;;;11.40;99.90;;;;;;5053108;28;20041;-70
2023/10/24 04:51:37;;;;;;;25.77;20.40;;;11.40;99.90;;;;;;5052844;28;20371;-70
2023/10/24 04:54:03;;;;;;;23.63;20.42;;;11.50;99.90;;;;;;5052833;28;20036;-70
2023/10/24 04:56:29;;;;;;;24.30;20.20;;;11.50;99.90;;;;;;5052890;28;20076;-71
2023/10/24 04:58:56;;;;;;;25.65;20.65;;;11.40;99.90;;;;;;5052874;28;20476;-71
2023/10/24 05:01:22;;;;;;;27.58;21.83;;;11.40;99.90;;;;;;5052933;28;20052;-72
2023/10/24 05:03:47;;;;;;;25.48;19.83;;;11.50;99.90;;;;;;5052645;28;20043;-71
2023/10/24 05:06:13;;;;;;;27.02;20.98;;;11.40;99.90;;;;;;5052631;28;20036;-71
2023/10/24 05:09:01;;;;;;;22.60;20.13;;;11.40;99.90;;;;;;5118997;27;20352;-69
2023/10/24 05:11:27;;;;;;;25.35;20.02;;;11.40;99.90;;;;;;5113596;28;20138;-70
2023/10/24 05:13:53;;;;;;;29.33;22.15;;;11.40;99.90;;;;;;5114158;28;20516;-69
2023/10/24 05:16:18;;;;;;;22.58;19.52;;;11.40;99.90;;;;;;5113979;28;20126;-69
2023/10/24 05:18:44;;;;;;;23.23;19.02;;;11.40;99.90;;;;;;5080117;28;20156;-69
2023/10/24 05:21:10;;;;;;;19.70;17.60;;;11.40;99.90;;;;;;5113152;28;20043;-69
2023/10/24 05:23:36;;;;;;;21.38;17.17;;;11.30;99.90;;;;;;5096032;28;20071;-70
2023/10/24 05:26:02;;;;;;;19.88;16.92;;;11.30;99.90;;;;;;5096123;28;20044;-70
2023/10/24 05:28:30;;;;;;;19.40;16.33;;;11.30;99.90;;;;;;5095917;28;20049;-70
2023/10/24 05:30:56;;;;;;;19.83;16.20;;;11.30;99.90;;;;;;5079624;28;20119;-71
2023/10/24 05:33:22;;;;;;;18.42;16.15;;;11.20;99.90;;;;;;5095872;28;20077;-71
2023/10/24 05:35:48;;;;;;;19.83;16.25;;;11.20;99.90;;;;;;5095723;28;20043;-71
2023/10/24 05:38:14;;;;;;;20.20;15.43;;;11.20;99.90;;;;;;5112587;28;20142;-71
2023/10/24 05:40:40;;;;;;;20.35;14.93;;;11.10;99.90;;;;;;5078716;28;20125;-70
2023/10/24 05:43:06;;;;;;;17.67;14.73;;;11.20;99.90;;;;;;5095652;28;20043;-71
2023/10/24 05:45:32;;;;;;;20.27;15.52;;;11.20;99.90;;;;;;5112647;28;20047;-70
2023/10/24 05:47:58;;;;;;;19.38;15.35;;;11.20;99.90;;;;;;5112402;28;20047;-70
2023/10/24 05:50:24;;;;;;;20.90;16.45;;;11.10;99.90;;;;;;5095800;28;20043;-70
2023/10/24 05:52:50;;;;;;;17.73;15.05;;;11.10;99.90;;;;;;5078466;28;20039;-71
2023/10/24 05:55:17;;;;;;;21.98;16.25;;;11.10;99.90;;;;;;5095288;28;20122;-70
2023/10/24 05:57:42;;;;;;;17.88;14.75;;;11.10;99.90;;;;;;5112189;28;20050;-70
2023/10/24 06:00:09;;;;;;;20.15;14.95;;;11.10;99.90;;;;;;5112173;28;20051;-71
2023/10/24 06:02:35;;;;;;;19.75;14.82;;;11.10;99.90;;;;;;5112164;28;20096;-71
2023/10/24 06:05:02;;;;;;;20.48;15.20;;;11.10;99.90;;;;;;5095136;28;20043;-70
2023/10/24 06:07:28;;;;;;;18.23;13.45;;;11.10;99.90;;;;;;5111990;28;20081;-70
2023/10/24 06:09:53;;;;;;;17.77;13.85;;;11.10;99.90;;;;;;5111958;28;20043;-71
2023/10/24 06:12:19;;;;;;;18.60;14.73;;;11.20;99.90;;;;;;5111997;28;20079;-70
2023/10/24 06:14:45;;;;;;;16.98;13.18;;;11.20;99.90;;;;;;5061641;28;20445;-71
2023/10/24 06:17:17;;;;;;;17.77;14.45;;;11.30;99.90;;;;;;5111847;28;20507;-71
2023/10/24 06:19:48;;;;;;;16.13;13.55;;;11.30;99.90;;;;;;5100867;28;20407;-70
2023/10/24 06:22:14;;;;;;;17.27;14.18;;;11.30;99.90;;;;;;5081484;28;20039;-70
2023/10/24 06:24:40;;;;;;;17.85;14.10;;;11.30;99.90;;;;;;5064720;28;20038;-70
2023/10/24 06:27:09;;;;;;;18.25;14.15;;;11.30;99.90;;;;;;5081040;28;20087;-70
2023/10/24 06:29:34;;;;;;;18.40;14.40;;;11.30;99.90;;;;;;5098354;28;20582;-70
2023/10/24 06:32:00;;;;;;;17.13;13.65;;;11.30;99.90;;;;;;5081069;28;20071;-71
2023/10/24 06:34:26;;;;;;;17.30;13.25;;;11.30;99.90;;;;;;5064348;28;20036;-70
2023/10/24 06:36:52;;;;;;;16.17;12.80;;;11.30;99.90;;;;;;5081042;28;20039;-71
2023/10/24 06:39:17;;;;;;;16.17;12.40;;;11.30;99.90;;;;;;5098239;28;20042;-70
2023/10/24 06:41:45;;;;;;;15.27;12.30;;;11.30;99.90;;;;;;5097862;28;20051;-70
2023/10/24 06:44:10;;;;;;;17.13;12.45;;;11.30;99.90;;;;;;5097760;28;20039;-71
2023/10/24 06:46:36;;;;;;;16.27;12.15;;;11.30;99.90;;;;;;5081131;28;20042;-70
2023/10/24 06:49:02;;;;;;;15.70;12.13;;;11.30;99.90;;;;;;5081121;28;20044;-70
2023/10/24 06:51:27;;;;;;;14.57;11.77;;;11.30;99.90;;;;;;5080828;28;20036;-70
2023/10/24 06:53:53;;;;;;;14.38;11.82;;;11.20;99.90;;;;;;5080651;28;20040;-71
2023/10/24 06:56:19;;;;;;;15.68;12.05;;;11.20;99.90;;;;;;5064185;28;20122;-70
2023/10/24 06:58:44;;;;;;;17.20;12.27;;;11.20;99.90;;;;;;5080701;28;20046;-70
2023/10/24 07:01:10;;;;;;;15.35;12.50;;;11.20;99.90;;;;;;5097411;28;20047;-70
2023/10/24 07:03:36;;;;;;;15.05;11.70;;;11.30;99.90;;;;;;5063978;28;20240;-70
2023/10/24 07:06:03;;;;;;;18.50;13.07;;;11.20;99.90;;;;;;5080586;28;20039;-70
2023/10/24 07:08:29;;;;;;;16.23;12.13;;;11.20;99.90;;;;;;5080251;28;20132;-70
2023/10/24 07:10:55;;;;;;;14.50;11.77;;;11.20;99.90;;;;;;5097249;28;20098;-70
2023/10/24 07:13:20;;;;;;;15.55;12.60;;;11.20;99.90;;;;;;5080358;28;20032;-70
2023/10/24 07:15:46;;;;;;;19.75;12.70;;;11.20;99.90;;;;;;5080596;28;20032;-70
2023/10/24 07:18:13;;;;;;;15.93;12.75;;;11.30;99.90;;;;;;5097193;28;20096;-70
2023/10/24 07:20:39;;;;;;;14.05;11.65;;;11.20;99.90;;;;;;5080331;28;20123;-71
2023/10/24 07:23:05;;;;;;;15.45;12.63;;;11.20;99.90;;;;;;5080659;28;20044;-70
2023/10/24 07:25:32;;;;;;;15.40;12.25;;;11.30;99.90;;;;;;5080079;28;20047;-70
2023/10/24 07:27:57;;;;;;;15.25;12.88;;;11.20;99.90;;;;;;5096985;28;20051;-70
2023/10/24 07:30:24;;;;;;;16.45;12.20;;;11.30;99.90;;;;;;5096094;28;20036;-70
2023/10/24 07:32:50;;;;;;;18.73;12.80;;;11.20;99.90;;;;;;5096761;28;20089;-70
2023/10/24 07:35:16;;;;;;;15.88;11.88;;;11.30;99.90;;;;;;5063822;28;20110;-70
2023/10/24 07:37:42;;;;;;;14.88;12.25;;;11.30;99.90;;;;;;5096792;28;20081;-70
2023/10/24 07:40:08;;;;;;;15.65;12.57;;;11.30;99.90;;;;;;5079927;28;20051;-70
2023/10/24 07:42:34;;;;;;;15.57;11.82;;;11.20;99.90;;;;;;5096651;28;20039;-71
2023/10/24 07:45:00;;;;;;;15.30;12.40;;;11.30;99.90;;;;;;5080019;28;20055;-71
2023/10/24 07:47:28;;;;;;;15.43;11.88;;;11.30;99.90;;;;;;5096491;28;20047;-71
2023/10/24 07:49:57;;;;;;;15.32;11.70;;;11.30;99.90;;;;;;5063458;28;20039;-71
2023/10/24 07:52:22;;;;;;;14.18;11.40;;;11.30;99.90;;;;;;5096486;28;20036;-71
2023/10/24 07:54:49;;;;;;;15.38;11.77;;;11.30;99.90;;;;;;5079820;28;20529;-71
2023/10/24 07:57:14;;;;;;;14.90;12.43;;;11.30;99.90;;;;;;5096300;28;20040;-71
2023/10/24 07:59:40;;;;;;;15.25;12.18;;;11.30;99.90;;;;;;5062807;28;20035;-71
2023/10/24 08:02:06;;;;;;;14.10;11.88;;;11.30;99.90;;;;;;5079646;28;20036;-71
2023/10/24 08:04:32;;;;;;;14.80;12.23;;;11.30;99.90;;;;;;5114438;28;20040;-71
2023/10/24 08:06:59;;;;;;;16.38;13.32;;;11.30;99.90;;;;;;5079312;28;20047;-71
2023/10/24 08:09:24;;;;;;;16.13;13.23;;;11.30;99.90;;;;;;5079363;28;20040;-71
2023/10/24 08:11:50;;;;;;;19.23;13.93;;;11.30;99.90;;;;;;5096389;28;20387;-71
2023/10/24 08:14:16;;;;;;;16.70;13.52;;;11.30;99.90;;;;;;5079240;28;20039;-70
2023/10/24 08:16:42;;;;;;;15.35;12.30;;;11.30;99.90;;;;;;5095997;28;20104;-71
2023/10/24 08:19:07;;;;;;;16.70;13.88;;;11.40;99.90;;;;;;5095994;28;20047;-71
2023/10/24 08:21:33;;;;;;;16.45;13.15;;;11.40;99.90;;;;;;5096043;28;20100;-71
2023/10/24 08:23:59;;;;;;;17.67;13.38;;;11.40;99.90;;;;;;5062305;28;20089;-71
2023/10/24 08:26:24;;;;;;;17.33;14.13;;;11.40;99.90;;;;;;5062546;28;20391;-71
2023/10/24 08:28:50;;;;;;;17.05;13.52;;;11.40;99.90;;;;;;5078946;28;20122;-71
2023/10/24 08:31:16;;;;;;;18.67;13.77;;;11.30;99.90;;;;;;5095776;28;20032;-71
2023/10/24 08:33:42;;;;;;;17.45;14.20;;;11.30;99.90;;;;;;5095861;28;20184;-71
2023/10/24 08:36:11;;;;;;;17.17;13.05;;;11.30;99.90;;;;;;5079199;28;20484;-71
2023/10/24 08:38:36;;;;;;;17.27;13.18;;;11.40;99.90;;;;;;5095634;28;20046;-71
2023/10/24 08:41:03;;;;;;;16.40;13.20;;;11.40;99.90;;;;;;5095785;28;20047;-71
2023/10/24 08:43:29;;;;;;;18.02;12.82;;;11.40;99.90;;;;;;5078970;28;20069;-71
2023/10/24 08:45:57;;;;;;;17.85;13.40;;;11.40;99.90;;;;;;5095853;28;20040;-71
2023/10/24 08:48:24;;;;;;;16.85;13.40;;;11.40;99.90;;;;;;5078671;28;20051;-70
2023/10/24 08:50:49;;;;;;;17.88;13.30;;;11.40;99.90;;;;;;5095452;28;20039;-70
2023/10/24 08:53:15;;;;;;;17.52;13.25;;;11.40;99.90;;;;;;5095401;28;20040;-71
2023/10/24 08:55:54;;;;;;;16.98;12.82;;;11.50;99.90;;;;;;5062310;28;20152;-71
2023/10/24 08:58:20;;;;;;;18.75;13.30;;;11.50;99.90;;;;;;5078758;28;20086;-72
2023/10/24 09:00:50;;;;;;;16.33;13.10;;;11.50;99.90;;;;;;5095603;28;20467;-70
2023/10/24 09:03:17;;;;;;;16.92;13.23;;;11.50;99.90;;;;;;5095529;28;20047;-70
2023/10/24 09:05:47;;;;;;;15.43;12.55;;;11.50;99.90;;;;;;5095203;28;20039;-71
2023/10/24 09:08:18;;;;;;;16.02;12.93;;;11.60;99.90;;;;;;5074850;28;20052;-70
2023/10/24 09:10:44;;;;;;;16.57;13.70;;;11.60;99.90;;;;;;5092165;28;20032;-70
2023/10/24 09:13:09;;;;;;;16.90;12.57;;;11.60;99.90;;;;;;5091805;28;20278;-70
2023/10/24 09:15:36;;;;;;;15.15;11.38;;;11.60;99.90;;;;;;5075024;28;20448;-70
2023/10/24 09:18:05;;;;;;;14.60;11.50;;;11.60;99.90;;;;;;5058467;28;20067;-70
2023/10/24 09:20:35;;;;;;;13.00;11.07;;;11.60;99.90;;;;;;5091848;28;20093;-71
2023/10/24 09:23:09;;;;;;;14.85;11.15;;;11.60;99.90;;;;;;5091704;28;20040;-70
2023/10/24 09:25:35;;;;;;;12.50;10.30;;;11.60;99.90;;;;;;5075031;28;20052;-71
2023/10/24 09:28:18;;;;;;;12.85;10.60;;;11.60;99.90;;;;;;5091683;28;20408;-70
2023/10/24 09:30:44;;;;;;;14.00;10.30;;;11.70;99.90;;;;;;5074934;28;20130;-70
2023/10/24 09:33:10;;;;;;;12.43;9.50;;;11.70;99.90;;;;;;5091702;28;20074;-70
2023/10/24 09:35:37;;;;;;;11.05;8.90;;;11.70;99.90;;;;;;5058530;28;20491;-70
2023/10/24 09:38:07;;;;;;;11.43;9.30;;;11.80;99.90;;;;;;5075275;28;20044;-70
2023/10/24 09:40:39;;;;;;;12.00;8.68;;;11.80;99.90;;;;;;5058371;28;20036;-71
2023/10/24 09:43:14;;;;;;;11.15;8.20;;;11.80;99.90;;;;;;5092069;28;20484;-70
2023/10/24 09:45:42;;;;;;;11.23;8.23;;;11.80;99.90;;;;;;5091927;28;20036;-71
2023/10/24 09:48:08;;;;;;;10.35;8.00;;;11.80;99.90;;;;;;5074694;28;20112;-70
2023/10/24 09:50:35;;;;;;;11.40;7.80;;;11.80;99.90;;;;;;5074813;28;20047;-70
2023/10/24 09:53:01;;;;;;;10.55;7.60;;;11.80;99.90;;;;;;5074685;28;20036;-71
2023/10/24 09:55:27;;;;;;;10.13;7.75;;;11.80;99.90;;;;;;5078449;28;20097;-70
2023/10/24 09:57:55;;;;;;;10.45;7.40;;;11.70;99.90;;;;;;5095413;28;20051;-71
2023/10/24 10:00:21;;;;;;;9.55;7.55;;;11.70;99.90;;;;;;5095292;28;20087;-71
2023/10/24 10:02:48;;;;;;;9.65;7.50;;;11.70;99.90;;;;;;5062087;28;20072;-71
2023/10/24 10:05:14;;;;;;;8.88;7.47;;;11.70;99.90;;;;;;5095108;28;20093;-71
2023/10/24 10:07:41;;;;;;;9.07;7.20;;;11.70;99.90;;;;;;5078005;28;20446;-71
2023/10/24 10:10:10;;;;;;;10.73;7.63;;;11.70;99.90;;;;;;5095169;28;20040;-71
2023/10/24 10:12:37;;;;;;;10.82;8.38;;;11.70;99.90;;;;;;5078897;28;20036;-71
2023/10/24 10:15:25;;;;;;;9.38;7.80;;;11.70;99.90;;;;;;5095353;28;20552;-71
2023/10/24 10:18:00;;;;;;;10.00;7.90;;;11.70;99.90;;;;;;5095170;28;20101;-70
2023/10/24 10:20:50;;;;;;;10.13;8.27;;;11.70;99.90;;;;;;5077971;28;20044;-70
2023/10/24 10:23:34;;;;;;;9.38;8.00;;;11.70;99.90;;;;;;5094737;28;20047;-71
2023/10/24 10:26:29;;;;;;;11.50;8.07;;;11.70;99.90;;;;;;5094873;28;20075;-70
2023/10/24 10:29:12;;;;;;;10.68;8.65;;;11.70;99.90;;;;;;5094681;28;20050;-70
2023/10/24 10:32:07;;;;;;;10.60;8.60;;;11.70;99.90;;;;;;5094648;28;20130;-71
2023/10/24 10:34:36;;;;;;;10.05;8.40;;;11.80;99.90;;;;;;5060989;28;20059;-71
2023/10/24 10:37:02;;;;;;;11.00;8.57;;;11.80;99.90;;;;;;5094563;28;20035;-71
2023/10/24 10:39:29;;;;;;;9.57;7.60;;;11.80;99.90;;;;;;5077874;28;20399;-70
2023/10/24 10:41:55;;;;;;;10.73;7.97;;;11.80;99.90;;;;;;5094793;28;20083;-71
2023/10/24 10:44:39;;;;;;;10.35;8.40;;;11.80;99.90;;;;;;5094476;28;20066;-71
2023/10/24 10:47:06;;;;;;;9.88;7.60;;;11.80;99.90;;;;;;5077663;28;20036;-71
2023/10/24 10:49:39;;;;;;;10.48;8.18;;;11.80;99.90;;;;;;5077699;28;20071;-71
2023/10/24 10:52:34;;;;;;;10.50;8.07;;;11.80;99.90;;;;;;5094646;28;20050;-71
2023/10/24 10:55:14;;;;;;;10.13;8.25;;;11.80;99.90;;;;;;5077332;28;20040;-71
2023/10/24 10:58:10;;;;;;;10.82;8.50;;;11.90;99.90;;;;;;5094209;28;20127;-71
2023/10/24 11:00:48;;;;;;;9.35;8.00;;;11.90;99.90;;;;;;5094384;28;20043;-70
2023/10/24 11:03:32;;;;;;;11.85;8.63;;;11.90;99.90;;;;;;5094373;28;20040;-70
2023/10/24 11:06:10;;;;;;;11.20;8.32;;;11.90;99.90;;;;;;5093906;28;20040;-71
2023/10/24 11:08:36;;;;;;;10.95;8.70;;;12.00;99.90;;;;;;5093760;28;20140;-71
2023/10/24 11:11:01;;;;;;;12.05;9.05;;;12.10;99.90;;;;;;5077380;28;20040;-70
2023/10/24 11:13:34;;;;;;;10.68;8.63;;;12.10;99.90;;;;;;5094196;28;20047;-71
2023/10/24 11:16:02;;;;;;;10.82;9.30;;;12.30;99.90;;;;;;5076914;28;20040;-70
2023/10/24 11:18:32;;;;;;;11.63;9.52;;;12.30;99.90;;;;;;5077190;28;20032;-70
2023/10/24 11:20:59;;;;;;;10.63;8.43;;;12.40;99.90;;;;;;5077102;28;20054;-71
2023/10/24 11:23:28;;;;;;;11.75;9.55;;;12.60;99.90;;;;;;5077172;28;20048;-70
2023/10/24 11:25:57;;;;;;;11.23;9.68;;;12.60;99.90;;;;;;5060561;28;20047;-71
2023/10/24 11:28:25;;;;;;;12.00;10.10;;;12.60;99.90;;;;;;5076586;28;20051;-71
2023/10/24 11:30:51;;;;;;;12.48;9.80;;;12.60;99.90;;;;;;5076589;28;20048;-72
2023/10/24 11:33:18;;;;;;;13.80;9.98;;;12.60;99.90;;;;;;5093561;28;20051;-72
2023/10/24 11:35:45;;;;;;;12.77;10.63;;;12.70;99.90;;;;;;5076550;28;20032;-71
2023/10/24 11:38:11;;;;;;;12.57;10.30;;;12.80;99.90;;;;;;5093634;28;20488;-71
2023/10/24 11:40:36;;;;;;;12.73;10.63;;;12.90;99.90;;;;;;5093411;28;20036;-71
2023/10/24 11:43:06;;;;;;;13.55;11.18;;;13.00;99.90;;;;;;5059837;28;20036;-70
2023/10/24 11:45:33;;;;;;;12.82;10.75;;;13.20;99.90;;;;;;5093553;28;20109;-71
2023/10/24 11:47:59;;;;;;;13.05;10.95;;;13.20;99.90;;;;;;5093251;28;20047;-70
2023/10/24 11:50:37;;;;;;;12.25;10.82;;;13.20;99.90;;;;;;5076356;28;20039;-70
2023/10/24 11:53:03;;;;;;;14.18;11.13;;;13.20;99.90;;;;;;5076173;28;20036;-70
2023/10/24 11:55:31;;;;;;;13.18;10.52;;;13.20;99.90;;;;;;5093089;28;20123;-71
2023/10/24 11:57:59;;;;;;;13.75;11.15;;;13.10;99.90;;;;;;5059649;28;20124;-70
2023/10/24 12:00:30;;;;;;;13.75;11.70;;;13.10;99.90;;;;;;5076126;28;20062;-70
2023/10/24 12:03:03;;;;;;;13.15;11.10;;;13.10;99.90;;;;;;5076424;28;20127;-71
2023/10/24 12:05:30;;;;;;;14.15;10.93;;;13.10;99.90;;;;;;5092956;28;20043;-70
2023/10/24 12:07:56;;;;;;;13.90;11.05;;;13.10;99.90;;;;;;5092677;28;20052;-71
2023/10/24 12:10:22;;;;;;;13.07;10.63;;;13.00;99.90;;;;;;5092890;28;20040;-70
2023/10/24 12:12:48;;;;;;;12.70;10.65;;;13.00;99.90;;;;;;5075895;28;20040;-70
2023/10/24 12:15:17;;;;;;;13.45;11.43;;;13.00;99.90;;;;;;5092746;28;20506;-70
2023/10/24 12:17:46;;;;;;;13.40;11.27;;;13.00;99.90;;;;;;5092247;28;20446;-69
2023/10/24 12:20:12;;;;;;;12.38;10.55;;;13.00;99.90;;;;;;5042458;28;20055;-70
2023/10/24 12:22:38;;;;;;;12.98;10.55;;;13.10;99.90;;;;;;5092533;28;20088;-71
2023/10/24 12:25:04;;;;;;;11.57;10.05;;;13.10;99.90;;;;;;5092764;28;20400;-71
2023/10/24 12:27:33;;;;;;;13.00;9.57;;;13.20;99.90;;;;;;5075616;28;20047;-71
2023/10/24 12:29:58;;;;;;;13.45;10.43;;;13.20;99.90;;;;;;5092479;28;20048;-71